sensor_id;sensor_type;location;lat;lon;timestamp;pressure;altitude;pressure_sealevel;temperature;humidity
5814;BME280;2933;52.302;8.134;2023-06-19T00:04:00;100003.97;;;22.67;57.58
5814;BME280;2933;52.302;8.134;2023-06-19T00:09:03;99990.88;;;22.51;57.06
5814;BME280;2933;52.302;8.134;2023-06-19T00:14:05;99989.66;;;22.53;58.04
5814;BME280;2933;52.302;8.134;2023-06-19T00:19:06;99973.16;;;22.43;56.76
5814;BME280;2933;52.302;8.134;2023-06-19T00:24:10;99963.59;;;22.49;56.23
5814;BME280;2933;52.302;8.134;2023-06-19T00:29:12;99961.19;;;22.54;56.07
5814;BME280;2933;52.302;8.134;2023-06-19T00:34:14;99964.44;;;22.49;57.00
5814;BME280;2933;52.302;8.134;2023-06-19T00:39:17;99947.25;;;22.37;57.41
5814;BME280;2933;52.302;8.134;2023-06-19T00:44:18;99946.16;;;22.46;57.14
5814;BME280;2933;52.302;8.134;2023-06-19T00:49:20;99950.25;;;22.34;57.63
5814;BME280;2933;52.302;8.134;2023-06-19T00:54:23;99939.91;;;22.39;58.54
5814;BME280;2933;52.302;8.134;2023-06-19T00:59:25;99934.50;;;22.32;58.75
5814;BME280;2933;52.302;8.134;2023-06-19T01:04:28;99929.38;;;22.46;59.45
5814;BME280;2933;52.302;8.134;2023-06-19T01:09:33;99916.44;;;22.42;58.08
5814;BME280;2933;52.302;8.134;2023-06-19T01:14:41;99910.50;;;22.40;58.42
5814;BME280;2933;52.302;8.134;2023-06-19T01:19:46;99908.91;;;22.46;59.16
5814;BME280;2933;52.302;8.134;2023-06-19T01:24:50;99907.63;;;22.42;61.14
5814;BME280;2933;52.302;8.134;2023-06-19T01:29:52;99916.63;;;22.41;61.50
5814;BME280;2933;52.302;8.134;2023-06-19T01:34:57;99916.34;;;22.21;60.93
5814;BME280;2933;52.302;8.134;2023-06-19T01:40:03;99912.56;;;22.15;63.31
5814;BME280;2933;52.302;8.134;2023-06-19T01:45:09;99919.06;;;22.13;68.24
5814;BME280;2933;52.302;8.134;2023-06-19T01:50:11;99901.19;;;21.91;68.50
5814;BME280;2933;52.302;8.134;2023-06-19T01:55:14;99939.81;;;22.02;70.44
5814;BME280;2933;52.302;8.134;2023-06-19T02:00:17;99931.69;;;21.81;71.41
5814;BME280;2933;52.302;8.134;2023-06-19T02:05:18;99927.94;;;21.75;71.02
5814;BME280;2933;52.302;8.134;2023-06-19T02:10:21;99927.28;;;21.73;71.21
5814;BME280;2933;52.302;8.134;2023-06-19T02:15:23;99939.19;;;21.62;71.23
5814;BME280;2933;52.302;8.134;2023-06-19T02:20:24;99937.06;;;21.57;71.33
5814;BME280;2933;52.302;8.134;2023-06-19T02:25:27;99930.19;;;21.63;68.32
5814;BME280;2933;52.302;8.134;2023-06-19T02:30:29;99928.47;;;21.70;64.78
5814;BME280;2933;52.302;8.134;2023-06-19T02:35:31;99915.38;;;21.69;64.21
5814;BME280;2933;52.302;8.134;2023-06-19T02:40:33;99918.97;;;21.76;64.59
5814;BME280;2933;52.302;8.134;2023-06-19T02:45:35;99918.50;;;21.72;66.31
5814;BME280;2933;52.302;8.134;2023-06-19T02:50:37;99921.03;;;21.66;66.20
5814;BME280;2933;52.302;8.134;2023-06-19T02:55:40;99912.31;;;21.57;67.55
5814;BME280;2933;52.302;8.134;2023-06-19T03:00:42;99916.00;;;21.47;69.17
5814;BME280;2933;52.302;8.134;2023-06-19T03:05:45;99916.44;;;21.36;71.43
5814;BME280;2933;52.302;8.134;2023-06-19T03:10:48;99904.16;;;21.35;71.31
5814;BME280;2933;52.302;8.134;2023-06-19T03:15:49;99921.44;;;21.08;73.57
5814;BME280;2933;52.302;8.134;2023-06-19T03:20:51;99908.34;;;21.06;74.39
5814;BME280;2933;52.302;8.134;2023-06-19T03:25:53;99918.28;;;21.12;75.81
5814;BME280;2933;52.302;8.134;2023-06-19T03:30:56;99920.84;;;20.97;76.42
5814;BME280;2933;52.302;8.134;2023-06-19T03:35:57;99910.47;;;20.88;75.62
5814;BME280;2933;52.302;8.134;2023-06-19T03:41:00;99923.06;;;20.86;75.90
5814;BME280;2933;52.302;8.134;2023-06-19T03:46:02;99929.59;;;20.75;74.66
5814;BME280;2933;52.302;8.134;2023-06-19T03:51:03;99933.78;;;21.01;73.95
5814;BME280;2933;52.302;8.134;2023-06-19T03:56:06;99939.22;;;20.76;79.07
5814;BME280;2933;52.302;8.134;2023-06-19T04:01:08;99935.25;;;20.72;78.47
5814;BME280;2933;52.302;8.134;2023-06-19T04:06:09;99942.84;;;20.75;77.78
5814;BME280;2933;52.302;8.134;2023-06-19T04:11:13;99923.78;;;20.79;82.75
5814;BME280;2933;52.302;8.134;2023-06-19T04:16:14;99936.03;;;20.80;79.50
5814;BME280;2933;52.302;8.134;2023-06-19T04:21:16;99933.38;;;20.80;81.46
5814;BME280;2933;52.302;8.134;2023-06-19T04:26:19;99942.03;;;20.74;85.22
5814;BME280;2933;52.302;8.134;2023-06-19T04:31:21;99946.53;;;20.74;85.55
5814;BME280;2933;52.302;8.134;2023-06-19T04:36:23;99947.03;;;20.61;87.55
5814;BME280;2933;52.302;8.134;2023-06-19T04:41:26;99944.56;;;20.59;87.64
5814;BME280;2933;52.302;8.134;2023-06-19T04:46:28;99952.72;;;20.58;87.58
5814;BME280;2933;52.302;8.134;2023-06-19T04:51:30;99963.31;;;20.58;87.77
5814;BME280;2933;52.302;8.134;2023-06-19T04:56:35;99969.25;;;20.76;89.41
5814;BME280;2933;52.302;8.134;2023-06-19T05:01:37;99970.84;;;20.86;90.24
5814;BME280;2933;52.302;8.134;2023-06-19T05:06:40;99950.66;;;20.76;85.92
5814;BME280;2933;52.302;8.134;2023-06-19T05:11:44;99998.50;;;21.31;81.64
5814;BME280;2933;52.302;8.134;2023-06-19T05:16:45;100004.19;;;21.74;79.03
5814;BME280;2933;52.302;8.134;2023-06-19T05:21:47;100005.53;;;21.93;75.81
5814;BME280;2933;52.302;8.134;2023-06-19T05:26:50;100009.91;;;21.86;74.58
5814;BME280;2933;52.302;8.134;2023-06-19T05:31:51;100012.25;;;22.04;74.84
5814;BME280;2933;52.302;8.134;2023-06-19T05:36:53;100020.56;;;22.24;72.54
5814;BME280;2933;52.302;8.134;2023-06-19T05:41:56;99995.50;;;22.19;73.08
5814;BME280;2933;52.302;8.134;2023-06-19T05:46:58;100012.50;;;22.48;72.94
5814;BME280;2933;52.302;8.134;2023-06-19T05:51:59;100007.38;;;22.46;72.31
5814;BME280;2933;52.302;8.134;2023-06-19T05:57:02;100007.94;;;22.71;72.88
5814;BME280;2933;52.302;8.134;2023-06-19T06:02:05;100021.53;;;22.62;71.40
5814;BME280;2933;52.302;8.134;2023-06-19T06:07:08;100030.31;;;22.77;71.74
5814;BME280;2933;52.302;8.134;2023-06-19T06:12:11;100036.91;;;22.81;71.64
5814;BME280;2933;52.302;8.134;2023-06-19T06:17:12;100042.56;;;22.71;74.27
5814;BME280;2933;52.302;8.134;2023-06-19T06:22:14;100060.25;;;22.79;73.22
5814;BME280;2933;52.302;8.134;2023-06-19T06:27:17;100067.69;;;22.69;73.84
5814;BME280;2933;52.302;8.134;2023-06-19T06:32:18;100083.38;;;22.94;73.28
5814;BME280;2933;52.302;8.134;2023-06-19T06:37:20;100078.53;;;22.82;74.72
5814;BME280;2933;52.302;8.134;2023-06-19T06:42:24;100086.44;;;22.75;74.59
5814;BME280;2933;52.302;8.134;2023-06-19T06:47:25;100089.44;;;22.87;74.98
5814;BME280;2933;52.302;8.134;2023-06-19T06:52:27;100097.53;;;22.79;76.22
5814;BME280;2933;52.302;8.134;2023-06-19T06:57:32;100100.47;;;22.84;77.56
5814;BME280;2933;52.302;8.134;2023-06-19T07:02:33;100106.47;;;23.16;75.66
5814;BME280;2933;52.302;8.134;2023-06-19T07:07:35;100104.97;;;22.84;76.71
5814;BME280;2933;52.302;8.134;2023-06-19T07:12:45;100119.84;;;22.93;76.69
5814;BME280;2933;52.302;8.134;2023-06-19T07:17:47;100122.59;;;23.00;76.09
5814;BME280;2933;52.302;8.134;2023-06-19T07:22:51;100122.97;;;22.67;76.60
5814;BME280;2933;52.302;8.134;2023-06-19T07:27:54;100129.59;;;23.01;76.40
5814;BME280;2933;52.302;8.134;2023-06-19T07:32:55;100135.84;;;23.08;76.69
5814;BME280;2933;52.302;8.134;2023-06-19T07:37:57;100133.72;;;22.88;75.35
5814;BME280;2933;52.302;8.134;2023-06-19T07:43:00;100134.88;;;22.71;76.96
5814;BME280;2933;52.302;8.134;2023-06-19T07:48:02;100142.16;;;22.77;76.64
5814;BME280;2933;52.302;8.134;2023-06-19T07:53:04;100127.59;;;22.50;78.17
5814;BME280;2933;52.302;8.134;2023-06-19T07:58:07;100141.94;;;22.64;77.23
5814;BME280;2933;52.302;8.134;2023-06-19T08:03:08;100144.97;;;22.61;77.19
5814;BME280;2933;52.302;8.134;2023-06-19T08:08:12;100146.19;;;22.73;74.28
5814;BME280;2933;52.302;8.134;2023-06-19T08:13:15;100153.72;;;22.69;74.73
5814;BME280;2933;52.302;8.134;2023-06-19T08:18:16;100147.13;;;23.10;73.47
5814;BME280;2933;52.302;8.134;2023-06-19T08:23:18;100162.66;;;23.06;74.68
5814;BME280;2933;52.302;8.134;2023-06-19T08:28:21;100162.38;;;23.01;74.14
5814;BME280;2933;52.302;8.134;2023-06-19T08:33:23;100168.38;;;23.18;74.34
5814;BME280;2933;52.302;8.134;2023-06-19T08:38:25;100185.16;;;23.04;75.00
5814;BME280;2933;52.302;8.134;2023-06-19T08:43:28;100193.88;;;22.98;74.29
5814;BME280;2933;52.302;8.134;2023-06-19T08:48:30;100193.38;;;22.64;73.66
5814;BME280;2933;52.302;8.134;2023-06-19T08:53:33;100185.88;;;22.83;74.03
5814;BME280;2933;52.302;8.134;2023-06-19T08:58:37;100196.56;;;23.58;70.91
5814;BME280;2933;52.302;8.134;2023-06-19T09:03:38;100202.25;;;23.54;69.82
5814;BME280;2933;52.302;8.134;2023-06-19T09:08:40;100200.63;;;23.38;71.59
5814;BME280;2933;52.302;8.134;2023-06-19T09:13:43;100221.03;;;23.31;74.04
5814;BME280;2933;52.302;8.134;2023-06-19T09:18:45;100216.59;;;23.38;73.23
5814;BME280;2933;52.302;8.134;2023-06-19T09:23:47;100223.13;;;23.36;73.84
5814;BME280;2933;52.302;8.134;2023-06-19T09:28:52;100217.66;;;23.37;75.35
5814;BME280;2933;52.302;8.134;2023-06-19T09:33:54;100223.13;;;23.36;75.06
5814;BME280;2933;52.302;8.134;2023-06-19T09:38:57;100217.50;;;23.61;74.98
5814;BME280;2933;52.302;8.134;2023-06-19T09:44:01;100235.66;;;23.50;74.61
5814;BME280;2933;52.302;8.134;2023-06-19T09:49:06;100216.97;;;23.65;73.80
5814;BME280;2933;52.302;8.134;2023-06-19T09:54:09;100220.81;;;23.78;72.38
5814;BME280;2933;52.302;8.134;2023-06-19T09:59:12;100235.41;;;23.82;72.36
5814;BME280;2933;52.302;8.134;2023-06-19T10:04:14;100238.22;;;23.44;74.36
5814;BME280;2933;52.302;8.134;2023-06-19T10:09:16;100252.81;;;23.18;75.47
5814;BME280;2933;52.302;8.134;2023-06-19T10:14:21;100234.31;;;23.01;75.71
5814;BME280;2933;52.302;8.134;2023-06-19T10:19:24;100251.38;;;23.30;74.79
5814;BME280;2933;52.302;8.134;2023-06-19T10:24:26;100244.03;;;22.94;74.41
5814;BME280;2933;52.302;8.134;2023-06-19T10:29:39;100245.03;;;23.16;74.96
5814;BME280;2933;52.302;8.134;2023-06-19T10:34:45;100249.31;;;23.32;72.33
5814;BME280;2933;52.302;8.134;2023-06-19T10:39:47;100251.09;;;23.55;73.54
5814;BME280;2933;52.302;8.134;2023-06-19T10:44:50;100242.63;;;23.66;73.06
5814;BME280;2933;52.302;8.134;2023-06-19T10:49:51;100261.84;;;23.47;71.54
5814;BME280;2933;52.302;8.134;2023-06-19T10:54:53;100244.09;;;23.39;72.71
5814;BME280;2933;52.302;8.134;2023-06-19T10:59:57;100250.69;;;23.73;72.63
5814;BME280;2933;52.302;8.134;2023-06-19T11:04:59;100253.66;;;23.63;73.65
5814;BME280;2933;52.302;8.134;2023-06-19T11:10:01;100252.13;;;23.91;73.79
5814;BME280;2933;52.302;8.134;2023-06-19T11:15:06;100269.25;;;24.33;71.94
5814;BME280;2933;52.302;8.134;2023-06-19T11:20:10;100238.44;;;24.09;69.82
5814;BME280;2933;52.302;8.134;2023-06-19T11:25:12;100265.28;;;24.22;69.90
5814;BME280;2933;52.302;8.134;2023-06-19T11:30:15;100260.06;;;24.57;67.76
5814;BME280;2933;52.302;8.134;2023-06-19T11:35:16;100264.88;;;24.25;69.17
5814;BME280;2933;52.302;8.134;2023-06-19T11:40:18;100247.34;;;24.38;68.91
5814;BME280;2933;52.302;8.134;2023-06-19T11:45:24;100263.00;;;25.41;66.07
5814;BME280;2933;52.302;8.134;2023-06-19T11:50:26;100240.03;;;26.02;62.14
5814;BME280;2933;52.302;8.134;2023-06-19T11:55:28;100269.88;;;25.99;61.03
5814;BME280;2933;52.302;8.134;2023-06-19T12:00:31;100261.22;;;25.90;59.29
5814;BME280;2933;52.302;8.134;2023-06-19T12:05:32;100265.72;;;26.44;60.03
5814;BME280;2933;52.302;8.134;2023-06-19T12:10:34;100261.13;;;26.32;58.66
5814;BME280;2933;52.302;8.134;2023-06-19T12:15:37;100250.66;;;26.70;58.43
5814;BME280;2933;52.302;8.134;2023-06-19T12:20:39;100258.09;;;26.68;57.39
5814;BME280;2933;52.302;8.134;2023-06-19T12:25:40;100253.94;;;27.26;54.29
5814;BME280;2933;52.302;8.134;2023-06-19T12:30:44;100256.44;;;27.21;53.28
5814;BME280;2933;52.302;8.134;2023-06-19T12:35:45;100247.66;;;27.72;50.07
5814;BME280;2933;52.302;8.134;2023-06-19T12:40:47;100253.25;;;27.64;50.64
5814;BME280;2933;52.302;8.134;2023-06-19T12:45:50;100250.44;;;27.39;49.27
5814;BME280;2933;52.302;8.134;2023-06-19T12:50:52;100251.94;;;27.08;50.06
5814;BME280;2933;52.302;8.134;2023-06-19T12:55:54;100253.53;;;26.55;51.02
5814;BME280;2933;52.302;8.134;2023-06-19T13:00:57;100253.16;;;26.58;51.82
5814;BME280;2933;52.302;8.134;2023-06-19T13:05:58;100239.56;;;26.93;50.90
5814;BME280;2933;52.302;8.134;2023-06-19T13:11:00;100264.88;;;27.31;49.94
5814;BME280;2933;52.302;8.134;2023-06-19T13:16:03;100251.53;;;26.84;50.28
5814;BME280;2933;52.302;8.134;2023-06-19T13:21:05;100261.00;;;26.93;50.54
5814;BME280;2933;52.302;8.134;2023-06-19T13:26:07;100254.78;;;26.46;52.86
5814;BME280;2933;52.302;8.134;2023-06-19T13:31:10;100266.16;;;26.82;50.93
5814;BME280;2933;52.302;8.134;2023-06-19T13:36:11;100258.72;;;26.64;51.17
5814;BME280;2933;52.302;8.134;2023-06-19T13:41:13;100258.91;;;26.49;50.83
5814;BME280;2933;52.302;8.134;2023-06-19T13:46:16;100256.84;;;26.57;51.27
5814;BME280;2933;52.302;8.134;2023-06-19T13:51:18;100252.09;;;26.73;49.62
5814;BME280;2933;52.302;8.134;2023-06-19T13:56:19;100260.78;;;26.82;47.77
5814;BME280;2933;52.302;8.134;2023-06-19T14:01:24;100256.06;;;26.84;50.35
5814;BME280;2933;52.302;8.134;2023-06-19T14:06:26;100259.75;;;27.09;50.01
5814;BME280;2933;52.302;8.134;2023-06-19T14:11:27;100263.50;;;26.88;46.29
5814;BME280;2933;52.302;8.134;2023-06-19T14:16:31;100266.63;;;27.78;46.21
5814;BME280;2933;52.302;8.134;2023-06-19T14:21:32;100268.81;;;27.94;44.89
5814;BME280;2933;52.302;8.134;2023-06-19T14:26:34;100264.53;;;27.86;45.02
5814;BME280;2933;52.302;8.134;2023-06-19T14:31:37;100274.81;;;27.96;44.03
5814;BME280;2933;52.302;8.134;2023-06-19T14:36:38;100274.78;;;27.44;45.20
5814;BME280;2933;52.302;8.134;2023-06-19T14:41:41;100262.19;;;27.45;43.70
5814;BME280;2933;52.302;8.134;2023-06-19T14:46:44;100264.44;;;27.54;44.59
5814;BME280;2933;52.302;8.134;2023-06-19T14:51:46;100255.44;;;26.75;46.35
5814;BME280;2933;52.302;8.134;2023-06-19T14:56:47;100248.81;;;27.24;46.56
5814;BME280;2933;52.302;8.134;2023-06-19T15:01:51;100246.78;;;27.85;43.58
5814;BME280;2933;52.302;8.134;2023-06-19T15:06:53;100269.31;;;28.23;42.11
5814;BME280;2933;52.302;8.134;2023-06-19T15:11:54;100268.06;;;27.73;43.79
5814;BME280;2933;52.302;8.134;2023-06-19T15:16:57;100272.25;;;27.56;45.14
5814;BME280;2933;52.302;8.134;2023-06-19T15:21:59;100274.56;;;27.32;44.71
5814;BME280;2933;52.302;8.134;2023-06-19T15:27:00;100261.84;;;27.86;43.53
5814;BME280;2933;52.302;8.134;2023-06-19T15:32:04;100264.97;;;28.54;42.21
5814;BME280;2933;52.302;8.134;2023-06-19T15:37:06;100266.06;;;28.46;40.11
5814;BME280;2933;52.302;8.134;2023-06-19T15:42:07;100256.84;;;28.67;41.99
5814;BME280;2933;52.302;8.134;2023-06-19T15:47:10;100266.00;;;28.85;40.74
5814;BME280;2933;52.302;8.134;2023-06-19T15:52:12;100259.66;;;28.47;40.81
5814;BME280;2933;52.302;8.134;2023-06-19T15:57:14;100252.41;;;27.70;42.49
5814;BME280;2933;52.302;8.134;2023-06-19T16:02:17;100259.94;;;27.28;44.45
5814;BME280;2933;52.302;8.134;2023-06-19T16:07:18;100258.28;;;27.27;45.21
5814;BME280;2933;52.302;8.134;2023-06-19T16:12:20;100252.31;;;27.18;45.73
5814;BME280;2933;52.302;8.134;2023-06-19T16:17:23;100228.00;;;26.66;47.39
5814;BME280;2933;52.302;8.134;2023-06-19T16:22:24;100240.38;;;27.01;45.63
5814;BME280;2933;52.302;8.134;2023-06-19T16:27:26;100234.34;;;27.46;44.08
5814;BME280;2933;52.302;8.134;2023-06-19T16:32:29;100227.94;;;27.33;44.64
5814;BME280;2933;52.302;8.134;2023-06-19T16:37:31;100237.47;;;27.16;46.20
5814;BME280;2933;52.302;8.134;2023-06-19T16:42:32;100239.97;;;26.97;45.06
5814;BME280;2933;52.302;8.134;2023-06-19T16:47:35;100240.38;;;27.01;44.98
5814;BME280;2933;52.302;8.134;2023-06-19T16:52:37;100242.69;;;26.90;45.69
5814;BME280;2933;52.302;8.134;2023-06-19T16:57:38;100241.44;;;26.93;45.56
5814;BME280;2933;52.302;8.134;2023-06-19T17:02:41;100251.53;;;26.91;44.07
5814;BME280;2933;52.302;8.134;2023-06-19T17:07:43;100244.72;;;26.75;46.01
5814;BME280;2933;52.302;8.134;2023-06-19T17:12:45;100244.13;;;26.80;45.04
5814;BME280;2933;52.302;8.134;2023-06-19T17:17:48;100246.31;;;26.42;45.80
5814;BME280;2933;52.302;8.134;2023-06-19T17:22:50;100250.03;;;26.35;46.14
5814;BME280;2933;52.302;8.134;2023-06-19T17:27:52;100260.56;;;26.50;46.12
5814;BME280;2933;52.302;8.134;2023-06-19T17:32:55;100246.75;;;26.46;46.61
5814;BME280;2933;52.302;8.134;2023-06-19T17:37:56;100253.97;;;26.52;47.03
5814;BME280;2933;52.302;8.134;2023-06-19T17:42:58;100244.47;;;26.43;45.79
5814;BME280;2933;52.302;8.134;2023-06-19T17:48:01;100249.41;;;26.26;47.96
5814;BME280;2933;52.302;8.134;2023-06-19T17:53:03;100244.31;;;25.89;48.06
5814;BME280;2933;52.302;8.134;2023-06-19T17:58:05;100251.53;;;25.89;48.86
5814;BME280;2933;52.302;8.134;2023-06-19T18:03:08;100255.53;;;26.06;49.14
5814;BME280;2933;52.302;8.134;2023-06-19T18:08:10;100261.09;;;26.11;47.30
5814;BME280;2933;52.302;8.134;2023-06-19T18:13:11;100257.91;;;25.88;47.87
5814;BME280;2933;52.302;8.134;2023-06-19T18:18:14;100268.44;;;25.96;47.79
5814;BME280;2933;52.302;8.134;2023-06-19T18:23:16;100268.03;;;25.99;48.51
5814;BME280;2933;52.302;8.134;2023-06-19T18:28:17;100264.91;;;25.89;49.27
5814;BME280;2933;52.302;8.134;2023-06-19T18:33:21;100274.16;;;25.86;49.08
5814;BME280;2933;52.302;8.134;2023-06-19T18:38:22;100272.66;;;25.77;50.12
5814;BME280;2933;52.302;8.134;2023-06-19T18:43:24;100269.09;;;25.63;50.74
5814;BME280;2933;52.302;8.134;2023-06-19T18:48:27;100258.69;;;25.40;51.38
5814;BME280;2933;52.302;8.134;2023-06-19T18:53:29;100279.28;;;25.46;53.74
5814;BME280;2933;52.302;8.134;2023-06-19T18:58:30;100279.81;;;25.35;55.64
5814;BME280;2933;52.302;8.134;2023-06-19T19:03:33;100287.50;;;25.16;56.72
5814;BME280;2933;52.302;8.134;2023-06-19T19:08:35;100277.13;;;25.06;57.32
5814;BME280;2933;52.302;8.134;2023-06-19T19:13:36;100272.91;;;24.90;58.23
5814;BME280;2933;52.302;8.134;2023-06-19T19:18:39;100262.56;;;24.80;58.38
5814;BME280;2933;52.302;8.134;2023-06-19T19:23:41;100279.31;;;24.52;60.41
5814;BME280;2933;52.302;8.134;2023-06-19T19:28:42;100287.78;;;24.34;61.74
5814;BME280;2933;52.302;8.134;2023-06-19T19:33:45;100287.81;;;24.19;63.34
5814;BME280;2933;52.302;8.134;2023-06-19T19:38:47;100291.34;;;24.05;64.31
5814;BME280;2933;52.302;8.134;2023-06-19T19:43:48;100291.44;;;23.82;66.62
5814;BME280;2933;52.302;8.134;2023-06-19T19:48:51;100300.44;;;23.66;68.03
5814;BME280;2933;52.302;8.134;2023-06-19T19:53:53;100311.53;;;23.24;69.43
5814;BME280;2933;52.302;8.134;2023-06-19T19:58:57;100279.75;;;23.00;70.60
5814;BME280;2933;52.302;8.134;2023-06-19T20:04:00;100315.22;;;23.00;70.67
5814;BME280;2933;52.302;8.134;2023-06-19T20:09:02;100318.72;;;23.01;72.92
5814;BME280;2933;52.302;8.134;2023-06-19T20:14:06;100319.72;;;23.00;73.33
5814;BME280;2933;52.302;8.134;2023-06-19T20:19:10;100315.53;;;22.82;74.27
5814;BME280;2933;52.302;8.134;2023-06-19T20:24:11;100317.22;;;22.75;75.87
5814;BME280;2933;52.302;8.134;2023-06-19T20:29:13;100313.41;;;22.54;75.87
5814;BME280;2933;52.302;8.134;2023-06-19T20:34:16;100318.84;;;22.38;77.38
5814;BME280;2933;52.302;8.134;2023-06-19T20:39:17;100319.88;;;22.20;78.68
5814;BME280;2933;52.302;8.134;2023-06-19T20:44:19;100315.59;;;22.11;79.83
5814;BME280;2933;52.302;8.134;2023-06-19T20:49:22;100321.13;;;22.01;81.15
5814;BME280;2933;52.302;8.134;2023-06-19T20:54:23;100322.28;;;21.99;81.69
5814;BME280;2933;52.302;8.134;2023-06-19T20:59:25;100327.63;;;21.90;81.98
5814;BME280;2933;52.302;8.134;2023-06-19T21:04:28;100331.03;;;21.76;83.76
5814;BME280;2933;52.302;8.134;2023-06-19T21:09:30;100326.06;;;21.65;83.27
5814;BME280;2933;52.302;8.134;2023-06-19T21:14:32;100316.09;;;21.50;83.84
5814;BME280;2933;52.302;8.134;2023-06-19T21:19:35;100329.06;;;21.45;85.48
5814;BME280;2933;52.302;8.134;2023-06-19T21:24:37;100327.94;;;21.31;85.42
5814;BME280;2933;52.302;8.134;2023-06-19T21:29:38;100333.56;;;21.36;85.78
5814;BME280;2933;52.302;8.134;2023-06-19T21:34:41;100337.38;;;21.25;86.22
5814;BME280;2933;52.302;8.134;2023-06-19T21:39:43;100332.88;;;21.34;85.89
5814;BME280;2933;52.302;8.134;2023-06-19T21:44:45;100334.06;;;21.07;87.83
5814;BME280;2933;52.302;8.134;2023-06-19T21:49:48;100326.28;;;21.05;87.30
5814;BME280;2933;52.302;8.134;2023-06-19T21:54:49;100318.47;;;20.87;86.93
5814;BME280;2933;52.302;8.134;2023-06-19T21:59:51;100341.72;;;20.85;86.98
5814;BME280;2933;52.302;8.134;2023-06-19T22:04:54;100336.53;;;20.75;86.91
5814;BME280;2933;52.302;8.134;2023-06-19T22:09:56;100304.16;;;20.55;86.14
5814;BME280;2933;52.302;8.134;2023-06-19T22:14:57;100333.53;;;20.78;87.46
5814;BME280;2933;52.302;8.134;2023-06-19T22:20:00;100333.88;;;20.83;85.24
5814;BME280;2933;52.302;8.134;2023-06-19T22:25:03;100312.97;;;20.97;82.69
5814;BME280;2933;52.302;8.134;2023-06-19T22:30:06;100327.59;;;20.93;83.65
5814;BME280;2933;52.302;8.134;2023-06-19T22:35:09;100321.28;;;20.86;83.41
5814;BME280;2933;52.302;8.134;2023-06-19T22:40:11;100311.50;;;20.94;83.10
5814;BME280;2933;52.302;8.134;2023-06-19T22:45:13;100308.34;;;21.07;81.44
5814;BME280;2933;52.302;8.134;2023-06-19T22:50:16;100297.41;;;20.94;81.73
5814;BME280;2933;52.302;8.134;2023-06-19T22:55:21;100315.75;;;20.62;82.06
5814;BME280;2933;52.302;8.134;2023-06-19T23:00:25;100295.97;;;20.48;82.24
5814;BME280;2933;52.302;8.134;2023-06-19T23:05:28;100311.44;;;20.53;82.80
5814;BME280;2933;52.302;8.134;2023-06-19T23:10:29;100321.06;;;20.54;83.11
5814;BME280;2933;52.302;8.134;2023-06-19T23:15:31;100321.19;;;20.44;83.03
5814;BME280;2933;52.302;8.134;2023-06-19T23:20:37;100321.72;;;20.64;82.66
5814;BME280;2933;52.302;8.134;2023-06-19T23:25:39;100302.78;;;20.51;81.83
5814;BME280;2933;52.302;8.134;2023-06-19T23:30:40;100327.31;;;20.45;82.89
5814;BME280;2933;52.302;8.134;2023-06-19T23:35:43;100322.84;;;20.45;83.05
5814;BME280;2933;52.302;8.134;2023-06-19T23:40:45;100327.19;;;20.46;82.47
5814;BME280;2933;52.302;8.134;2023-06-19T23:45:46;100321.66;;;20.31;82.50
5814;BME280;2933;52.302;8.134;2023-06-19T23:50:49;100309.69;;;20.27;82.01
5814;BME280;2933;52.302;8.134;2023-06-19T23:55:51;100315.00;;;20.27;83.21
